createdAt,value
2017-12-28T00:01:32.885Z,94.46
2017-12-28T00:03:59.684Z,94.13
2017-12-28T00:06:26.226Z,94.40
2017-12-28T00:08:52.660Z,93.54
2017-12-28T00:11:19.196Z,93.88
2017-12-28T00:13:45.582Z,94.04
2017-12-28T00:16:12.692Z,94.32
2017-12-28T00:18:40.397Z,94.19
2017-12-28T00:21:08.514Z,94.44
2017-12-28T00:23:35.710Z,94.55
2017-12-28T00:26:03.058Z,94.55
2017-12-28T00:28:35.041Z,94.22
2017-12-28T00:31:02.736Z,94.22
2017-12-28T00:33:29.432Z,94.15
2017-12-28T00:35:58.252Z,94.02
2017-12-28T00:38:25.859Z,94.05
2017-12-28T00:40:58.017Z,93.19
2017-12-28T00:43:24.949Z,92.54
2017-12-28T00:45:52.341Z,92.84
2017-12-28T00:48:18.929Z,92.70
2017-12-28T00:50:45.728Z,92.34
2017-12-28T00:53:12.289Z,91.75
2017-12-28T00:55:39.459Z,91.82
2017-12-28T00:58:05.955Z,92.09
2017-12-28T01:00:32.401Z,92.00
2017-12-28T01:02:58.935Z,92.51
2017-12-28T01:05:25.667Z,92.68
2017-12-28T01:07:52.233Z,92.81
2017-12-28T01:10:18.527Z,92.26
2017-12-28T01:12:44.857Z,92.45
2017-12-28T01:15:11.529Z,92.75
2017-12-28T01:17:38.253Z,92.49
2017-12-28T01:20:04.806Z,92.19
2017-12-28T01:22:31.354Z,92.13
2017-12-28T01:24:57.919Z,91.91
2017-12-28T01:27:24.785Z,92.40
2017-12-28T01:29:51.305Z,92.72
2017-12-28T01:32:19.867Z,92.38
2017-12-28T01:34:46.486Z,91.69
2017-12-28T01:37:13.140Z,90.97
2017-12-28T01:39:39.641Z,91.82
2017-12-28T01:42:06.590Z,91.98
2017-12-28T01:44:33.213Z,92.31
2017-12-28T01:46:59.578Z,92.31
2017-12-28T01:49:26.638Z,92.86
2017-12-28T01:51:53.136Z,92.86
2017-12-28T01:54:19.504Z,92.88
2017-12-28T01:56:46.318Z,93.13
2017-12-28T01:59:12.802Z,93.38
2017-12-28T02:01:39.158Z,92.76
2017-12-28T02:04:05.486Z,93.34
2017-12-28T02:06:33.066Z,92.90
2017-12-28T02:09:00.220Z,92.80
2017-12-28T02:11:26.736Z,92.83
2017-12-28T02:13:53.220Z,92.35
2017-12-28T02:16:20.105Z,92.59
2017-12-28T02:21:33.105Z,92.79
2017-12-28T02:24:00.222Z,92.52
2017-12-28T02:26:26.712Z,92.25
2017-12-28T02:28:53.258Z,92.34
2017-12-28T02:31:19.682Z,91.88
2017-12-28T02:33:45.904Z,92.23
2017-12-28T02:36:12.520Z,92.17
2017-12-28T02:38:38.911Z,92.22
2017-12-28T02:41:05.447Z,92.21
2017-12-28T02:43:31.810Z,91.54
2017-12-28T02:45:58.254Z,91.56
2017-12-28T02:48:24.555Z,91.65
2017-12-28T02:50:51.124Z,91.67
2017-12-28T02:53:17.436Z,91.25
2017-12-28T02:55:43.859Z,90.88
2017-12-28T02:58:10.541Z,90.85
2017-12-28T03:00:37.044Z,91.19
2017-12-28T03:03:03.584Z,91.15
2017-12-28T03:05:30.094Z,90.97
2017-12-28T03:07:56.540Z,91.21
2017-12-28T03:10:22.993Z,91.45
2017-12-28T03:12:49.722Z,90.55
2017-12-28T03:15:16.331Z,90.32
2017-12-28T03:17:42.706Z,90.66
2017-12-28T03:20:09.254Z,90.86
2017-12-28T03:22:35.716Z,89.94
2017-12-28T03:25:02.393Z,90.66
2017-12-28T03:27:28.944Z,91.26
2017-12-28T03:29:55.366Z,91.31
2017-12-28T03:32:21.731Z,91.00
2017-12-28T03:34:48.016Z,91.50
2017-12-28T03:37:14.887Z,91.68
2017-12-28T03:39:41.494Z,92.19
2017-12-28T03:42:08.161Z,92.04
2017-12-28T03:44:34.806Z,91.79
2017-12-28T03:47:01.452Z,91.70
2017-12-28T03:49:28.225Z,91.86
2017-12-28T03:51:54.785Z,91.74
2017-12-28T03:54:21.411Z,91.77
2017-12-28T03:56:47.586Z,91.87
2017-12-28T03:59:13.973Z,91.96
2017-12-28T04:01:41.040Z,92.49
2017-12-28T04:04:07.647Z,92.34
2017-12-28T04:06:33.995Z,92.73
2017-12-28T04:09:00.415Z,92.60
2017-12-28T04:11:26.733Z,92.50
2017-12-28T04:13:53.409Z,92.51
2017-12-28T04:16:19.983Z,92.51
2017-12-28T04:18:47.133Z,91.75
2017-12-28T04:21:14.636Z,92.30
2017-12-28T04:23:40.831Z,92.64
2017-12-28T04:26:07.361Z,91.91
2017-12-28T04:28:33.733Z,92.26
2017-12-28T04:31:00.340Z,92.80
2017-12-28T04:33:26.545Z,92.94
2017-12-28T04:35:52.924Z,92.63
2017-12-28T04:38:19.221Z,92.72
2017-12-28T04:40:45.774Z,93.17
2017-12-28T04:43:12.108Z,92.63
2017-12-28T04:45:38.784Z,93.08
2017-12-28T04:48:05.340Z,92.58
2017-12-28T04:50:31.964Z,92.41
2017-12-28T04:52:58.644Z,92.54
2017-12-28T04:55:24.907Z,92.85
2017-12-28T04:57:51.356Z,93.32
2017-12-28T05:00:17.713Z,93.34
2017-12-28T05:02:44.075Z,93.16
2017-12-28T05:05:10.764Z,93.34
2017-12-28T05:07:37.122Z,92.97
2017-12-28T05:10:03.474Z,92.73
2017-12-28T05:12:29.842Z,93.43
2017-12-28T05:14:56.294Z,93.57
2017-12-28T05:17:22.803Z,93.46
2017-12-28T05:19:49.650Z,93.57
2017-12-28T05:22:16.097Z,93.66
2017-12-28T05:24:42.511Z,93.74
2017-12-28T05:27:08.999Z,94.02
2017-12-28T05:29:35.435Z,93.50
2017-12-28T05:32:01.847Z,93.40
2017-12-28T05:34:28.194Z,93.54
2017-12-28T05:36:54.505Z,93.91
2017-12-28T05:39:20.854Z,93.93
2017-12-28T05:41:47.121Z,93.92
2017-12-28T05:44:13.448Z,94.42
2017-12-28T05:46:40.007Z,93.85
2017-12-28T05:49:06.384Z,94.02
2017-12-28T05:51:33.118Z,94.26
2017-12-28T05:53:59.891Z,94.16
2017-12-28T05:56:26.049Z,94.28
2017-12-28T05:58:52.550Z,94.05
2017-12-28T06:01:18.914Z,93.74
2017-12-28T06:03:45.423Z,93.66
2017-12-28T06:06:11.804Z,93.47
2017-12-28T06:08:40.015Z,93.62
2017-12-28T06:11:07.079Z,93.80
2017-12-28T06:13:33.680Z,93.18
2017-12-28T06:15:59.967Z,92.89
2017-12-28T06:18:26.846Z,93.04
2017-12-28T06:20:53.113Z,93.38
2017-12-28T06:23:19.536Z,93.51
2017-12-28T06:25:46.008Z,93.65
2017-12-28T06:28:15.472Z,93.72
2017-12-28T06:33:35.952Z,93.83
2017-12-28T06:36:04.837Z,93.75
2017-12-28T06:38:32.464Z,93.81
2017-12-28T06:40:58.866Z,93.99
2017-12-28T06:43:26.097Z,92.88
2017-12-28T06:45:52.792Z,92.59
2017-12-28T06:48:18.988Z,92.80
2017-12-28T06:50:45.445Z,93.18
2017-12-28T06:53:13.065Z,93.43
2017-12-28T06:55:40.831Z,93.43
2017-12-28T06:58:07.313Z,93.10
2017-12-28T07:00:34.126Z,92.92
2017-12-28T07:03:00.648Z,92.75
2017-12-28T07:05:26.977Z,92.06
2017-12-28T07:07:53.402Z,92.53
2017-12-28T07:10:19.664Z,92.72
2017-12-28T07:12:46.272Z,92.65
2017-12-28T07:15:12.755Z,92.17
2017-12-28T07:17:39.137Z,92.70
2017-12-28T07:20:05.658Z,92.69
2017-12-28T07:22:32.135Z,92.92
2017-12-28T07:24:58.391Z,92.97
2017-12-28T07:27:24.690Z,92.92
2017-12-28T07:29:51.022Z,93.04
2017-12-28T07:32:17.580Z,93.16
2017-12-28T07:34:43.989Z,93.62
2017-12-28T07:37:10.678Z,93.57
2017-12-28T07:39:37.328Z,93.50
2017-12-28T07:42:03.907Z,93.26
2017-12-28T07:44:30.457Z,93.03
2017-12-28T07:46:57.156Z,92.93
2017-12-28T07:49:23.598Z,92.31
2017-12-28T07:51:51.003Z,92.73
2017-12-28T07:54:17.708Z,92.89
2017-12-28T07:56:44.388Z,92.92
2017-12-28T07:59:11.100Z,92.64
2017-12-28T08:01:37.500Z,92.18
2017-12-28T08:04:03.838Z,92.19
2017-12-28T08:06:30.537Z,92.05
2017-12-28T08:08:56.728Z,91.60
2017-12-28T08:11:23.233Z,91.00
2017-12-28T08:16:23.184Z,91.47
2017-12-28T08:18:49.536Z,91.20
2017-12-28T08:21:16.034Z,90.95
2017-12-28T08:23:42.469Z,90.72
2017-12-28T08:26:08.944Z,90.05
2017-12-28T08:28:35.250Z,89.83
2017-12-28T08:31:01.579Z,89.62
2017-12-28T08:33:28.016Z,90.22
2017-12-28T08:35:54.447Z,90.05
2017-12-28T08:38:21.245Z,90.19
2017-12-28T08:40:47.544Z,89.21
2017-12-28T08:43:14.185Z,89.25
2017-12-28T08:45:40.419Z,89.48
2017-12-28T08:48:06.935Z,89.34
2017-12-28T08:50:33.423Z,88.74
2017-12-28T08:53:00.161Z,89.25
2017-12-28T08:55:26.555Z,89.49
2017-12-28T08:57:53.383Z,89.68
2017-12-28T09:00:20.073Z,89.63
2017-12-28T09:02:46.297Z,89.94
2017-12-28T09:05:16.773Z,89.92
2017-12-28T09:07:43.510Z,89.84
2017-12-28T09:10:09.771Z,89.11
2017-12-28T09:12:36.375Z,89.30
2017-12-28T09:15:03.051Z,88.64
2017-12-28T09:17:29.160Z,88.51
2017-12-28T09:19:59.509Z,89.09
2017-12-28T09:22:26.073Z,88.76
2017-12-28T09:24:57.480Z,89.05
2017-12-28T09:27:24.023Z,88.86
2017-12-28T09:29:55.209Z,88.23
2017-12-28T09:32:21.986Z,88.08
2017-12-28T09:34:48.438Z,87.48
2017-12-28T09:37:19.012Z,87.54
2017-12-28T09:39:45.167Z,87.25
2017-12-28T09:42:11.421Z,87.38
2017-12-28T09:44:37.910Z,87.12
2017-12-28T09:47:04.248Z,85.85
2017-12-28T09:49:30.622Z,85.09
2017-12-28T09:51:57.140Z,85.45
2017-12-28T09:54:27.562Z,85.66
2017-12-28T09:56:54.222Z,85.93
2017-12-28T09:59:21.667Z,84.82
2017-12-28T10:01:48.403Z,84.64
2017-12-28T10:04:15.522Z,84.44
2017-12-28T10:06:41.926Z,82.91
2017-12-28T10:09:08.630Z,81.66
2017-12-28T10:11:36.140Z,82.50
2017-12-28T10:14:03.019Z,82.08
2017-12-28T10:16:31.221Z,82.07
2017-12-28T10:18:58.163Z,81.44
2017-12-28T10:21:24.994Z,81.77
2017-12-28T10:23:52.639Z,82.31
2017-12-28T10:26:19.101Z,81.64
2017-12-28T10:28:45.525Z,80.28
2017-12-28T10:31:12.181Z,80.82
2017-12-28T10:33:38.579Z,80.81
2017-12-28T10:36:05.183Z,81.17
2017-12-28T10:38:35.546Z,81.36
2017-12-28T10:41:02.018Z,81.33
2017-12-28T10:43:29.307Z,81.11
2017-12-28T10:45:55.626Z,80.99
2017-12-28T10:48:24.465Z,80.43
2017-12-28T10:50:50.887Z,79.33
2017-12-28T10:53:17.819Z,80.12
2017-12-28T10:55:44.464Z,79.16
2017-12-28T10:58:11.059Z,79.74
2017-12-28T11:00:37.900Z,79.09
2017-12-28T11:03:04.677Z,78.77
2017-12-28T11:05:32.267Z,78.92
2017-12-28T11:07:58.514Z,78.25
2017-12-28T11:10:24.578Z,77.87
2017-12-28T11:12:50.733Z,78.11
2017-12-28T11:15:17.012Z,78.92
2017-12-28T11:17:43.132Z,80.01
2017-12-28T11:20:09.288Z,79.48
2017-12-28T11:22:35.902Z,78.76
2017-12-28T11:25:02.454Z,80.22
2017-12-28T11:27:29.133Z,79.73
2017-12-28T11:29:55.995Z,80.12
2017-12-28T11:32:22.460Z,80.61
2017-12-28T11:34:49.145Z,80.80
2017-12-28T11:37:16.552Z,81.57
2017-12-28T11:39:42.646Z,82.29
2017-12-28T11:42:08.696Z,82.98
2017-12-28T11:44:35.876Z,81.80
2017-12-28T11:47:01.957Z,81.72
2017-12-28T11:49:28.507Z,82.55
2017-12-28T11:52:00.777Z,82.45
2017-12-28T11:54:31.021Z,82.71
2017-12-28T11:57:02.052Z,82.78
2017-12-28T11:59:28.157Z,82.57
2017-12-28T12:02:01.401Z,82.20
2017-12-28T12:04:27.723Z,81.27
2017-12-28T12:06:59.589Z,80.50
2017-12-28T12:09:25.707Z,81.12
2017-12-28T12:11:54.041Z,80.62
2017-12-28T12:14:20.165Z,80.46
2017-12-28T12:16:46.189Z,78.76
2017-12-28T12:19:13.105Z,78.89
2017-12-28T12:21:41.287Z,78.97
2017-12-28T12:24:07.414Z,79.35
2017-12-28T12:26:33.475Z,78.13
2017-12-28T12:28:59.531Z,79.42
2017-12-28T12:31:25.620Z,79.48
2017-12-28T12:33:51.683Z,79.43
2017-12-28T12:36:17.805Z,80.16
2017-12-28T12:38:43.965Z,79.64
2017-12-28T12:41:11.012Z,80.34
2017-12-28T12:43:37.057Z,80.47
2017-12-28T12:46:03.178Z,81.54
2017-12-28T12:48:29.262Z,80.72
2017-12-28T12:50:55.380Z,81.46
2017-12-28T12:53:21.454Z,81.20
2017-12-28T12:55:47.585Z,81.81
2017-12-28T12:58:13.615Z,80.92
2017-12-28T13:00:39.621Z,81.54
2017-12-28T13:03:05.642Z,80.76
2017-12-28T13:05:31.752Z,80.81
2017-12-28T13:07:58.817Z,80.04
2017-12-28T13:10:24.850Z,79.93
2017-12-28T13:12:50.904Z,79.73
2017-12-28T13:15:17.148Z,79.99
2017-12-28T13:17:43.123Z,79.64
2017-12-28T13:20:09.317Z,79.64
2017-12-28T13:22:36.033Z,77.93
2017-12-28T13:25:02.130Z,77.85
2017-12-28T13:27:28.241Z,77.26
2017-12-28T13:29:54.351Z,77.71
2017-12-28T13:32:20.465Z,76.97
2017-12-28T13:34:46.533Z,76.97
2017-12-28T13:37:12.561Z,77.08
2017-12-28T13:39:38.729Z,76.77
2017-12-28T13:42:04.815Z,76.78
2017-12-28T13:44:33.098Z,75.13
2017-12-28T13:46:59.294Z,74.87
2017-12-28T13:49:25.284Z,75.48
2017-12-28T13:51:51.494Z,74.56
2017-12-28T13:54:17.673Z,74.88
2017-12-28T13:56:43.907Z,74.12
2017-12-28T13:59:10.198Z,74.38
2017-12-28T14:01:36.468Z,74.19
2017-12-28T14:04:02.807Z,74.05
2017-12-28T14:06:29.056Z,73.41
2017-12-28T14:08:55.186Z,73.82
2017-12-28T14:11:21.277Z,74.37
2017-12-28T14:13:47.680Z,75.14
2017-12-28T14:16:13.906Z,74.12
2017-12-28T14:18:40.027Z,74.57
2017-12-28T14:21:06.076Z,73.90
2017-12-28T14:23:32.200Z,73.61
2017-12-28T14:25:58.352Z,74.41
2017-12-28T14:28:24.576Z,73.68
2017-12-28T14:30:50.865Z,72.51
2017-12-28T14:33:16.938Z,73.01
2017-12-28T14:35:43.166Z,72.68
2017-12-28T14:38:09.239Z,72.74
2017-12-28T14:40:35.280Z,72.33
2017-12-28T14:43:01.354Z,73.15
2017-12-28T14:45:27.474Z,72.72
2017-12-28T14:47:53.730Z,72.83
2017-12-28T14:50:19.780Z,73.37
2017-12-28T14:52:45.912Z,73.26
2017-12-28T14:55:12.070Z,73.62
2017-12-28T14:57:38.301Z,74.58
2017-12-28T15:00:04.429Z,74.69
2017-12-28T15:02:30.496Z,74.51
2017-12-28T15:04:56.573Z,75.69
2017-12-28T15:07:22.631Z,75.79
2017-12-28T15:09:48.893Z,75.73
2017-12-28T15:12:14.957Z,76.53
2017-12-28T15:14:41.041Z,75.96
2017-12-28T15:17:07.050Z,76.18
2017-12-28T15:19:33.244Z,76.24
2017-12-28T15:21:59.335Z,76.51
2017-12-28T15:24:25.428Z,76.21
2017-12-28T15:26:51.546Z,75.42
2017-12-28T15:29:17.918Z,75.27
2017-12-28T15:31:44.103Z,75.66
2017-12-28T15:34:10.190Z,76.42
2017-12-28T15:36:36.357Z,76.27
2017-12-28T15:39:02.567Z,76.25
2017-12-28T15:41:28.748Z,75.85
2017-12-28T15:43:55.294Z,75.89
2017-12-28T15:46:21.550Z,76.75
2017-12-28T15:48:47.622Z,76.79
2017-12-28T15:51:13.827Z,76.39
2017-12-28T15:53:40.034Z,76.90
2017-12-28T15:56:06.156Z,76.91
2017-12-28T15:58:32.190Z,77.06
2017-12-28T16:01:12.826Z,77.39
2017-12-28T16:03:38.987Z,77.67
2017-12-28T16:06:05.059Z,77.58
2017-12-28T16:08:31.280Z,77.78
2017-12-28T16:10:57.536Z,77.63
2017-12-28T16:13:23.545Z,77.87
2017-12-28T16:15:50.786Z,77.82
2017-12-28T16:18:16.849Z,78.68
2017-12-28T16:20:43.084Z,78.89
2017-12-28T16:23:09.243Z,79.42
2017-12-28T16:25:35.330Z,79.22
2017-12-28T16:28:02.146Z,80.02
2017-12-28T16:30:28.274Z,79.51
2017-12-28T16:32:54.407Z,79.96
2017-12-28T16:35:20.731Z,80.24
2017-12-28T16:37:46.808Z,80.41
2017-12-28T16:40:12.908Z,81.19
2017-12-28T16:42:39.085Z,81.72
2017-12-28T16:45:05.234Z,81.75
2017-12-28T16:47:32.032Z,82.54
2017-12-28T16:49:58.226Z,82.30
2017-12-28T16:52:24.881Z,81.94
2017-12-28T16:54:50.899Z,81.98
2017-12-28T16:57:20.300Z,82.14
2017-12-28T16:59:49.544Z,82.41
2017-12-28T17:02:15.678Z,82.22
2017-12-28T17:04:41.958Z,82.43
2017-12-28T17:07:08.066Z,81.80
2017-12-28T17:09:34.252Z,82.28
2017-12-28T17:12:00.354Z,82.16
2017-12-28T17:14:26.528Z,82.36
2017-12-28T17:19:59.303Z,81.88
2017-12-28T17:22:30.565Z,81.98
2017-12-28T17:27:33.367Z,82.65
2017-12-28T17:30:03.873Z,82.48
2017-12-28T17:32:30.661Z,82.76
2017-12-28T17:35:00.158Z,82.45
2017-12-28T17:37:26.666Z,82.26
2017-12-28T17:39:52.682Z,82.54
2017-12-28T17:42:18.900Z,82.64
2017-12-28T17:44:45.138Z,82.26
2017-12-28T17:47:11.272Z,82.38
2017-12-28T17:49:37.360Z,82.68
2017-12-28T17:52:03.555Z,82.64
2017-12-28T17:54:29.755Z,82.65
2017-12-28T17:56:55.990Z,82.72
2017-12-28T17:59:22.517Z,82.79
2017-12-28T18:01:48.652Z,82.72
2017-12-28T18:04:14.809Z,82.99
2017-12-28T18:06:41.102Z,82.80
2017-12-28T18:09:07.229Z,82.61
2017-12-28T18:11:33.331Z,82.58
2017-12-28T18:13:59.367Z,82.38
2017-12-28T18:16:25.505Z,82.49
2017-12-28T18:18:51.817Z,82.23
2017-12-28T18:21:18.692Z,82.22
2017-12-28T18:23:45.219Z,81.91
2017-12-28T18:26:12.496Z,81.45
2017-12-28T18:28:38.914Z,81.20
2017-12-28T18:31:05.278Z,81.03
2017-12-28T18:33:31.458Z,80.94
2017-12-28T18:35:57.557Z,80.94
2017-12-28T18:38:23.690Z,80.93
2017-12-28T18:40:49.980Z,80.98
2017-12-28T18:43:16.238Z,80.79
2017-12-28T18:45:42.451Z,81.09
2017-12-28T18:48:08.803Z,81.03
2017-12-28T18:50:35.029Z,81.00
2017-12-28T18:53:01.374Z,81.12
2017-12-28T18:55:28.237Z,81.04
2017-12-28T18:57:54.737Z,81.07
2017-12-28T19:00:21.194Z,80.79
2017-12-28T19:02:47.398Z,80.71
2017-12-28T19:05:13.919Z,80.94
2017-12-28T19:07:40.157Z,81.14
2017-12-28T19:10:06.371Z,81.14
2017-12-28T19:12:32.520Z,81.15
2017-12-28T19:14:58.698Z,81.09
2017-12-28T19:17:25.097Z,81.19
2017-12-28T19:19:51.864Z,80.93
2017-12-28T19:22:18.719Z,80.88
2017-12-28T19:24:45.552Z,80.74
2017-12-28T19:27:11.938Z,80.88
2017-12-28T19:29:38.158Z,80.79
2017-12-28T19:32:05.252Z,80.77
2017-12-28T19:34:33.927Z,80.93
2017-12-28T19:37:01.994Z,80.76
2017-12-28T19:39:28.363Z,80.67
2017-12-28T19:41:54.661Z,80.45
2017-12-28T19:44:21.884Z,80.06
2017-12-28T19:46:49.042Z,79.21
2017-12-28T19:49:15.666Z,79.37
2017-12-28T19:51:42.215Z,78.78
2017-12-28T19:54:08.621Z,78.81
2017-12-28T19:56:35.230Z,78.75
2017-12-28T19:59:02.004Z,78.84
2017-12-28T20:01:28.484Z,78.90
2017-12-28T20:03:55.179Z,78.59
2017-12-28T20:06:21.525Z,78.63
2017-12-28T20:08:48.215Z,78.31
2017-12-28T20:11:15.065Z,78.09
2017-12-28T20:13:41.693Z,78.46
2017-12-28T20:16:08.617Z,77.62
2017-12-28T20:18:35.277Z,77.64
2017-12-28T20:21:02.369Z,77.60
2017-12-28T20:23:28.797Z,76.91
2017-12-28T20:25:55.554Z,77.44
2017-12-28T20:28:22.220Z,77.33
2017-12-28T20:30:50.105Z,77.18
2017-12-28T20:33:17.552Z,77.55
2017-12-28T20:35:44.242Z,77.88
2017-12-28T20:38:11.970Z,77.84
2017-12-28T20:40:39.020Z,77.65
2017-12-28T20:43:05.800Z,77.91
2017-12-28T20:45:33.165Z,78.13
2017-12-28T20:48:00.087Z,78.24
2017-12-28T20:50:26.504Z,78.68
2017-12-28T20:52:53.071Z,78.73
2017-12-28T20:55:20.267Z,78.50
2017-12-28T20:57:47.019Z,78.23
2017-12-28T21:00:14.030Z,78.01
2017-12-28T21:02:41.409Z,78.68
2017-12-28T21:05:09.467Z,79.06
2017-12-28T21:07:36.349Z,79.31
2017-12-28T21:10:03.815Z,79.21
2017-12-28T21:12:33.545Z,79.30
2017-12-28T21:15:00.786Z,79.46
2017-12-28T21:17:28.316Z,79.46
2017-12-28T21:19:54.874Z,78.95
2017-12-28T21:22:22.394Z,78.72
2017-12-28T21:24:49.120Z,78.87
2017-12-28T21:27:16.139Z,79.41
2017-12-28T21:29:42.756Z,79.24
2017-12-28T21:32:10.056Z,78.99
2017-12-28T21:34:37.277Z,78.66
2017-12-28T21:37:04.790Z,79.00
2017-12-28T21:39:31.547Z,78.94
2017-12-28T21:41:58.798Z,79.29
2017-12-28T21:44:26.115Z,78.86
2017-12-28T21:46:52.660Z,78.80
2017-12-28T21:49:20.639Z,78.67
2017-12-28T21:51:47.904Z,78.59
2017-12-28T21:54:15.226Z,78.42
2017-12-28T21:56:41.781Z,78.39
2017-12-28T21:59:09.564Z,78.25
2017-12-28T22:01:36.722Z,78.17
2017-12-28T22:04:04.059Z,78.40
2017-12-28T22:06:30.607Z,78.66
2017-12-28T22:08:57.840Z,78.77
2017-12-28T22:11:24.785Z,78.70
2017-12-28T22:13:52.035Z,79.09
2017-12-28T22:16:18.300Z,79.50
2017-12-28T22:18:44.663Z,79.29
2017-12-28T22:21:10.952Z,79.61
2017-12-28T22:23:37.015Z,79.42
2017-12-28T22:26:03.522Z,79.30
2017-12-28T22:28:29.802Z,79.22
2017-12-28T22:30:56.070Z,79.32
2017-12-28T22:33:22.212Z,79.49
2017-12-28T22:35:48.785Z,78.99
2017-12-28T22:38:15.039Z,78.90
2017-12-28T22:40:41.596Z,79.14
2017-12-28T22:43:07.890Z,79.48
2017-12-28T22:45:34.142Z,79.77
2017-12-28T22:48:00.282Z,79.79
2017-12-28T22:50:26.472Z,80.00
2017-12-28T22:52:52.601Z,80.23
2017-12-28T22:55:18.694Z,80.63
2017-12-28T22:57:44.758Z,81.20
2017-12-28T23:00:10.955Z,81.15
2017-12-28T23:02:37.016Z,81.25
2017-12-28T23:05:03.196Z,81.49
2017-12-28T23:07:29.392Z,82.18
2017-12-28T23:09:55.663Z,82.11
2017-12-28T23:12:21.858Z,81.74
2017-12-28T23:14:48.398Z,81.61
2017-12-28T23:17:14.533Z,82.38
2017-12-28T23:19:40.759Z,82.23
2017-12-28T23:22:06.955Z,81.51
2017-12-28T23:24:33.187Z,81.17
2017-12-28T23:26:59.375Z,80.81
2017-12-28T23:29:25.729Z,80.64
2017-12-28T23:31:51.868Z,80.31
2017-12-28T23:34:18.107Z,80.01
2017-12-28T23:36:44.161Z,79.88
2017-12-28T23:39:10.534Z,79.78
2017-12-28T23:41:36.673Z,79.36
2017-12-28T23:44:02.784Z,79.31
2017-12-28T23:46:28.942Z,79.29
2017-12-28T23:48:55.362Z,79.53
2017-12-28T23:51:21.492Z,79.62
2017-12-28T23:53:47.630Z,79.77
2017-12-28T23:56:13.937Z,79.66
2017-12-28T23:58:40.108Z,79.96
